KSSF/SSF METAR and TAF weather

Enter ICAO airport designator
Station Type Date Time Source
KSSF METAR 2019/02/21 15:53 UTC NOAA

KSSF 211553Z 07009KT 10SM OVC038 14/05 A2992 RMK AO2 SLP131 T01390050


Station Type Date Time Source
KSSF Decoded METAR 2019/02/21 15:53 UTC NOAA

SAN ANTONIO STINSON MUNI, TX, United States (KSSF) 29-20N 098-28W 176M
Feb 21, 2019 - 10:53 AM EST / 2019.02.21 1553 UTC
Wind: from the ENE (070 degrees) at 10 MPH (9 KT):0
Visibility: 10 mile(s):0
Sky conditions: overcast
Temperature: 57.0 F (13.9 C)
Dew Point: 41.0 F (5.0 C)
Relative Humidity: 54%
Pressure (altimeter): 29.92 in. Hg (1013 hPa)
ob: KSSF 211553Z 07009KT 10SM OVC038 14/05 A2992 RMK AO2 SLP131 T01390050
cycle: 16

Station Type Date Time Source
KSSF TAF 2019/02/21 15:21 UTC NOAA

TAF
AMD KSSF 211518Z 2115/2212 03005KT P6SM OVC040
FM211700 04007KT P6SM BKN025 OVC035
FM211900 05008KT P6SM BKN015 OVC025
FM220200 06005KT 6SM BR OVC006
FM220700 07005KT 1SM -DZ BR OVC004


Example: see airport list